Time;durP1;ratioP1;P1;durP2;ratioP2;P2;SDS_P1;SDS_P2;PMS_P1;PMS_P2;Temp;Humidity;BMP_temperature;BMP_pressure;BME280_temperature;BME280_humidity;BME280_pressure;Samples;Min_cycle;Max_cycle;Signal;HPM_P1;HPM_P2
2021/09/16 00:01:21;;;;;;;6.78;3.72;;;;;;;17.09;100.00;98784.00;4918323;29;20071;-82
2021/09/16 00:03:51;;;;;;;8.13;3.58;;;;;;;17.10;100.00;98782.06;4918704;29;20082;-83
2021/09/16 00:06:23;;;;;;;7.68;3.88;;;;;;;17.10;100.00;98782.94;4926927;29;20163;-83
2021/09/16 00:08:50;;;;;;;4.65;3.58;;;;;;;17.31;100.00;98803.50;4934110;29;20473;-83
2021/09/16 00:11:19;;;;;;;5.88;3.80;;;;;;;17.39;100.00;98809.69;4936494;29;20058;-83
2021/09/16 00:13:46;;;;;;;6.97;3.47;;;;;;;17.33;100.00;98798.59;4936819;29;20052;-83
2021/09/16 00:16:15;;;;;;;6.00;3.78;;;;;;;17.33;100.00;98795.84;4917651;29;20052;-83
2021/09/16 00:18:42;;;;;;;4.63;3.80;;;;;;;17.29;100.00;98799.28;4918067;29;20047;-83
2021/09/16 00:21:11;;;;;;;4.00;3.30;;;;;;;17.17;100.00;98793.78;4933765;29;20070;-83
2021/09/16 00:26:58;;;;;;;4.97;3.30;;;;;;;17.21;100.00;98813.38;4916745;29;20048;-83
2021/09/16 00:29:29;;;;;;;4.82;3.45;;;;;;;17.21;100.00;98803.22;4918131;29;20080;-82
2021/09/16 00:32:10;;;;;;;4.35;3.53;;;;;;;17.27;100.00;98813.28;4918062;29;20078;-83
2021/09/16 00:34:37;;;;;;;6.72;3.17;;;;;;;17.19;100.00;98799.03;4917582;29;20052;-83
2021/09/16 00:37:07;;;;;;;6.68;3.13;;;;;;;17.29;100.00;98804.78;4916934;29;20056;-82
2021/09/16 00:39:35;;;;;;;6.80;3.17;;;;;;;17.28;100.00;98801.22;4917769;29;20060;-82
2021/09/16 00:42:02;;;;;;;5.10;3.60;;;;;;;17.43;100.00;98806.25;4918404;29;20488;-81
2021/09/16 00:44:39;;;;;;;3.42;2.90;;;;;;;17.30;100.00;98801.81;4920731;29;20043;-83
2021/09/16 00:47:06;;;;;;;3.65;3.33;;;;;;;17.29;100.00;98788.31;4920788;29;20060;-83
2021/09/16 00:49:34;;;;;;;7.35;3.10;;;;;;;17.30;100.00;98790.00;4918027;29;20059;-83
2021/09/16 00:55:04;;;;;;;4.55;2.85;;;;;;;17.36;100.00;98822.00;4936795;29;20051;-82
2021/09/16 01:01:11;;;;;;;5.22;3.45;;;;;;;17.18;100.00;98792.72;4909732;29;20060;-82
2021/09/16 01:03:56;;;;;;;6.57;3.33;;;;;;;17.41;100.00;98810.28;4932483;29;20052;-82
2021/09/16 01:06:28;;;;;;;4.95;3.00;;;;;;;17.21;100.00;98797.75;4921650;29;20067;-82
2021/09/16 01:09:11;;;;;;;3.78;3.00;;;;;;;17.38;100.00;98810.78;4922849;29;20052;-83
2021/09/16 01:15:04;;;;;;;4.60;2.60;;;;;;;17.27;100.00;98823.44;4887717;29;20048;-83
2021/09/16 01:17:31;;;;;;;4.82;2.80;;;;;;;17.26;100.00;98828.06;4917029;29;20064;-84
2021/09/16 01:19:58;;;;;;;6.75;2.80;;;;;;;17.28;100.00;98805.84;4917442;29;20151;-84
2021/09/16 01:22:28;;;;;;;4.15;2.80;;;;;;;17.24;100.00;98808.25;4916692;29;20048;-83
2021/09/16 01:25:02;;;;;;;4.78;2.97;;;;;;;17.27;100.00;98829.75;4916498;29;20139;-84
2021/09/16 01:27:31;;;;;;;4.10;2.92;;;;;;;17.21;100.00;98808.72;4918574;29;20142;-84
2021/09/16 01:30:09;;;;;;;5.70;2.50;;;;;;;17.37;100.00;98818.16;4917095;29;20060;-83
2021/09/16 01:32:39;;;;;;;7.20;2.88;;;;;;;17.45;100.00;98808.75;4930353;29;20467;-84
2021/09/16 01:35:08;;;;;;;5.32;2.72;;;;;;;17.48;100.00;98822.00;4935191;29;20491;-84
2021/09/16 01:37:44;;;;;;;6.40;2.90;;;;;;;17.33;100.00;98825.22;4935419;29;20066;-84
2021/09/16 01:40:15;;;;;;;5.78;2.80;;;;;;;17.37;100.00;98806.34;4935900;29;20056;-84
2021/09/16 01:42:51;;;;;;;3.35;2.70;;;;;;;17.27;100.00;98815.19;4934882;29;20106;-84
2021/09/16 01:45:29;;;;;;;4.75;2.95;;;;;;;17.26;100.00;98810.75;4922413;29;20059;-84
2021/09/16 01:48:07;;;;;;;3.65;2.55;;;;;;;17.30;100.00;98810.03;4927389;29;20067;-85
2021/09/16 01:50:34;;;;;;;10.82;3.00;;;;;;;17.27;100.00;98807.78;4935291;29;20040;-84
2021/09/16 01:55:54;;;;;;;2.90;2.40;;;;;;;17.35;100.00;98814.81;4933286;29;20475;-84
2021/09/16 01:59:15;;;;;;;2.72;2.22;;;;;;;17.39;100.00;98815.19;4935122;29;20492;-84
2021/09/16 02:01:45;;;;;;;6.43;2.40;;;;;;;17.29;100.00;98811.09;4916198;29;20056;-84
2021/09/16 02:04:12;;;;;;;;;;;;;;;17.38;100.00;98816.28;4923163;29;20369;-84
2021/09/16 02:06:39;;;;;;;3.90;2.72;;;;;;;17.33;100.00;98804.06;4916294;29;20306;-83
2021/09/16 02:09:06;;;;;;;5.97;2.75;;;;;;;17.34;100.00;98799.41;4935442;29;20059;-84
2021/09/16 02:11:34;;;;;;;5.40;2.90;;;;;;;17.29;100.00;98780.88;4927359;29;20143;-83
2021/09/16 02:14:01;;;;;;;3.67;2.60;;;;;;;17.34;100.00;98792.03;4919623;29;20051;-83
2021/09/16 02:16:28;;;;;;;6.50;2.70;;;;;;;17.28;100.00;98789.38;4915568;29;20055;-84
2021/09/16 02:18:54;;;;;;;5.95;2.58;;;;;;;17.26;100.00;98800.59;4915223;29;20484;-84
2021/09/16 02:21:21;;;;;;;4.40;2.47;;;;;;;17.21;100.00;98783.16;4915233;29;20056;-83
2021/09/16 02:23:51;;;;;;;8.52;2.65;;;;;;;17.12;100.00;98777.19;4916411;29;20044;-83
2021/09/16 02:26:21;;;;;;;;;;;;;;;17.16;100.00;98789.34;4917749;29;20513;-83
2021/09/16 02:28:49;;;;;;;3.42;2.47;;;;;;;17.19;100.00;98774.31;4920350;29;20358;-83
2021/09/16 02:31:16;;;;;;;3.33;2.15;;;;;;;17.17;100.00;98785.53;4920814;29;20064;-83
2021/09/16 02:33:43;;;;;;;4.13;2.60;;;;;;;17.13;100.00;98784.34;4919311;29;20059;-83
2021/09/16 02:36:10;;;;;;;7.90;2.40;;;;;;;17.18;100.00;98787.22;4927103;29;20051;-84
2021/09/16 02:38:37;;;;;;;12.18;3.85;;;;;;;17.19;100.00;98777.06;4935029;29;20102;-84
2021/09/16 02:41:04;;;;;;;6.20;2.53;;;;;;;17.02;100.00;98768.69;4925344;29;20060;-83
2021/09/16 02:43:30;;;;;;;5.00;2.15;;;;;;;17.12;100.00;98785.44;4921541;29;20488;-83
2021/09/16 02:45:59;;;;;;;4.38;2.40;;;;;;;17.13;100.00;98789.84;4915880;29;20059;-83
2021/09/16 02:48:25;;;;;;;4.00;2.25;;;;;;;17.03;100.00;98753.91;4915902;29;20381;-84
2021/09/16 02:50:52;;;;;;;4.43;2.38;;;;;;;17.04;100.00;98772.88;4915911;29;20115;-83
2021/09/16 02:53:19;;;;;;;5.53;3.10;;;;;;;16.96;100.00;98767.72;4931120;29;20055;-84
2021/09/16 02:55:45;;;;;;;4.88;2.13;;;;;;;16.93;100.00;98768.19;4934380;29;20531;-84
2021/09/16 02:58:12;;;;;;;4.45;2.35;;;;;;;16.93;100.00;98780.00;4934102;29;20048;-83
2021/09/16 03:00:39;;;;;;;4.25;2.17;;;;;;;16.97;100.00;98778.47;4931338;29;20115;-83
2021/09/16 03:03:09;;;;;;;4.78;1.75;;;;;;;16.91;100.00;98771.19;4921864;29;20052;-84
2021/09/16 03:05:36;;;;;;;4.20;2.00;;;;;;;16.86;100.00;98778.41;4919209;29;20079;-84
2021/09/16 03:08:02;;;;;;;3.08;2.15;;;;;;;16.88;100.00;98777.16;4919791;29;20108;-85
2021/09/16 03:10:40;;;;;;;3.78;2.60;;;;;;;16.98;100.00;98782.91;4922123;29;20111;-84
2021/09/16 03:13:07;;;;;;;4.72;2.38;;;;;;;17.01;100.00;98775.25;4923400;29;20139;-85
2021/09/16 03:15:34;;;;;;;5.35;2.15;;;;;;;17.06;100.00;98781.72;4924560;29;20047;-84
2021/09/16 03:18:00;;;;;;;4.68;2.47;;;;;;;16.98;100.00;98779.31;4935165;29;20120;-84
2021/09/16 03:20:29;;;;;;;3.83;2.30;;;;;;;17.05;100.00;98777.28;4936757;29;20123;-84
2021/09/16 03:22:56;;;;;;;6.25;2.20;;;;;;;17.03;100.00;98773.13;4938120;29;20047;-84
2021/09/16 03:25:22;;;;;;;6.07;2.33;;;;;;;17.08;100.00;98773.25;4936493;29;20051;-84
2021/09/16 03:27:49;;;;;;;4.78;2.40;;;;;;;17.02;100.00;98750.31;4919112;29;20048;-84
2021/09/16 03:30:17;;;;;;;5.32;2.42;;;;;;;16.90;100.00;98761.25;4919179;29;20052;-84
2021/09/16 03:32:44;;;;;;;3.38;2.20;;;;;;;17.01;100.00;98764.28;4932950;29;20088;-84
2021/09/16 03:35:19;;;;;;;4.65;2.40;;;;;;;16.92;100.00;98748.16;4935136;29;20134;-84
2021/09/16 03:37:47;;;;;;;4.68;2.25;;;;;;;16.95;100.00;98755.91;4921022;29;20043;-85
2021/09/16 03:40:15;;;;;;;5.22;1.90;;;;;;;17.01;100.00;98767.00;4934497;29;20514;-84
2021/09/16 03:42:41;;;;;;;9.43;1.90;;;;;;;16.98;100.00;98760.09;4937129;29;20381;-84
2021/09/16 03:45:09;;;;;;;39.47;4.53;;;;;;;16.85;100.00;98761.13;4927260;29;20063;-85
2021/09/16 03:47:36;;;;;;;6.22;2.17;;;;;;;16.90;100.00;98774.16;4919366;29;20129;-84
2021/09/16 03:50:03;;;;;;;3.05;1.80;;;;;;;17.01;100.00;98767.84;4918863;29;20052;-84
2021/09/16 03:52:29;;;;;;;2.95;2.05;;;;;;;16.88;100.00;98763.41;4917479;29;20072;-84
2021/09/16 03:54:57;;;;;;;3.97;2.00;;;;;;;16.87;100.00;98756.25;4918344;29;20055;-83
2021/09/16 03:57:24;;;;;;;3.75;2.05;;;;;;;16.78;100.00;98763.13;4918357;29;20543;-82
2021/09/16 03:59:51;;;;;;;3.75;1.77;;;;;;;16.92;100.00;98772.00;4927354;29;20048;-83
2021/09/16 04:02:18;;;;;;;5.47;1.83;;;;;;;16.95;100.00;98766.91;4937162;29;20126;-84
2021/09/16 04:04:45;;;;;;;6.50;2.75;;;;;;;16.97;100.00;98774.91;4921824;29;20056;-84
2021/09/16 04:07:11;;;;;;;5.28;2.75;;;;;;;16.87;100.00;98758.16;4919761;29;20123;-83
2021/09/16 04:09:41;;;;;;;2.13;1.90;;;;;;;16.88;100.00;98768.09;4930362;29;20044;-84
2021/09/16 04:12:10;;;;;;;2.08;1.80;;;;;;;16.90;100.00;98758.53;4925406;29;20523;-84
2021/09/16 04:14:37;;;;;;;3.58;2.28;;;;;;;17.12;100.00;98767.03;4920463;29;20047;-84
2021/09/16 04:17:04;;;;;;;2.75;1.70;;;;;;;17.05;100.00;98755.31;4920079;29;20381;-84
2021/09/16 04:19:31;;;;;;;3.70;1.85;;;;;;;17.04;100.00;98770.16;4918052;29;20496;-83
2021/09/16 04:21:58;;;;;;;6.75;1.65;;;;;;;17.02;100.00;98774.19;4927375;29;20044;-83
2021/09/16 04:24:25;;;;;;;2.83;2.03;;;;;;;16.96;100.00;98763.06;4916980;29;20044;-83
2021/09/16 04:26:51;;;;;;;5.20;2.10;;;;;;;17.10;100.00;98771.94;4918148;29;20074;-83
2021/09/16 04:29:20;;;;;;;2.65;1.55;;;;;;;17.08;100.00;98754.84;4918083;29;20055;-83
2021/09/16 04:31:48;;;;;;;3.38;1.70;;;;;;;17.12;100.00;98749.72;4917695;29;20420;-83
2021/09/16 04:34:15;;;;;;;2.67;1.65;;;;;;;16.97;100.00;98753.75;4917681;29;20052;-82
2021/09/16 04:36:57;;;;;;;5.32;2.00;;;;;;;17.19;100.00;98777.91;4917345;29;20055;-83
2021/09/16 04:39:23;;;;;;;5.38;1.60;;;;;;;17.12;100.00;98788.19;4917881;29;20412;-83
2021/09/16 04:41:50;;;;;;;3.13;1.98;;;;;;;17.09;100.00;98759.28;4917667;29;20547;-82
2021/09/16 04:44:21;;;;;;;3.28;1.90;;;;;;;16.98;100.00;98771.06;4922438;29;20063;-82
2021/09/16 04:46:50;;;;;;;2.97;1.70;;;;;;;17.06;100.00;98778.16;4921183;29;20495;-82
2021/09/16 04:49:17;;;;;;;5.40;1.88;;;;;;;17.06;100.00;98797.38;4922596;29;20078;-82
2021/09/16 04:51:44;;;;;;;2.72;1.70;;;;;;;16.98;100.00;98785.66;4926379;29;20396;-83
2021/09/16 04:54:15;;;;;;;2.25;2.03;;;;;;;17.02;100.00;98771.44;4925009;29;20080;-83
2021/09/16 04:56:42;;;;;;;3.35;1.80;;;;;;;17.13;100.00;98796.19;4922030;29;20043;-83
2021/09/16 04:59:15;;;;;;;5.90;1.80;;;;;;;17.09;100.00;98797.72;4921311;29;20407;-83
2021/09/16 05:01:43;;;;;;;3.75;1.70;;;;;;;16.97;100.00;98777.66;4920985;29;20150;-83
2021/09/16 05:04:10;;;;;;;2.67;1.83;;;;;;;17.11;100.00;98800.22;4918426;29;20048;-84
2021/09/16 05:06:38;;;;;;;3.47;2.00;;;;;;;17.01;100.00;98788.97;4916849;29;20052;-84
2021/09/16 05:09:04;;;;;;;5.25;1.75;;;;;;;16.98;100.00;98777.41;4921459;29;20083;-84
2021/09/16 05:11:39;;;;;;;5.57;2.00;;;;;;;16.97;100.00;98794.13;4921943;29;20216;-84
2021/09/16 05:14:05;;;;;;;4.95;2.10;;;;;;;16.92;100.00;98793.97;4936272;29;20090;-84
2021/09/16 05:16:32;;;;;;;4.80;1.65;;;;;;;17.01;100.00;98808.22;4924754;29;20048;-85
2021/09/16 05:19:01;;;;;;;2.55;1.92;;;;;;;17.05;100.00;98809.41;4918426;29;20400;-85
2021/09/16 05:21:31;;;;;;;6.00;2.22;;;;;;;17.01;100.00;98810.94;4917676;29;20051;-86
2021/09/16 05:23:58;;;;;;;5.85;2.03;;;;;;;16.91;100.00;98798.63;4916850;29;20492;-85
2021/09/16 05:26:24;;;;;;;3.42;1.63;;;;;;;17.11;100.00;98816.72;4916903;29;20060;-85
2021/09/16 05:28:52;;;;;;;2.15;1.70;;;;;;;16.95;100.00;98793.50;4926024;29;20130;-85
2021/09/16 05:31:19;;;;;;;2.83;1.83;;;;;;;17.02;100.00;98813.47;4936021;29;20423;-86
2021/09/16 05:33:45;;;;;;;5.30;1.60;;;;;;;16.96;100.00;98806.16;4920157;29;20060;-86
2021/09/16 05:36:14;;;;;;;5.53;1.80;;;;;;;16.84;100.00;98795.13;4916418;29;20488;-86
2021/09/16 05:38:41;;;;;;;5.90;2.15;;;;;;;16.89;100.00;98814.53;4928349;29;20055;-85
2021/09/16 05:41:07;;;;;;;3.60;1.92;;;;;;;16.81;100.00;98796.41;4936040;29;20062;-86
2021/09/16 05:43:36;;;;;;;6.78;2.28;;;;;;;16.88;100.00;98807.34;4935395;29;20055;-86
2021/09/16 05:46:04;;;;;;;2.75;1.83;;;;;;;16.97;100.00;98819.66;4927470;29;20059;-86
2021/09/16 05:48:31;;;;;;;9.10;2.67;;;;;;;16.85;100.00;98807.78;4924410;29;20051;-86
2021/09/16 05:50:58;;;;;;;7.22;1.92;;;;;;;16.94;100.00;98809.16;4918792;29;20063;-82
2021/09/16 05:53:26;;;;;;;3.50;2.10;;;;;;;16.89;100.00;98811.78;4923936;29;20467;-84
2021/09/16 05:55:54;;;;;;;4.35;2.00;;;;;;;16.86;100.00;98793.00;4919771;29;20055;-84
2021/09/16 05:58:21;;;;;;;2.70;1.95;;;;;;;16.86;100.00;98812.22;4934385;29;20143;-84
2021/09/16 06:00:48;;;;;;;5.40;2.00;;;;;;;16.84;100.00;98814.34;4934837;29;20059;-83
2021/09/16 06:03:14;;;;;;;5.65;2.10;;;;;;;16.95;100.00;98812.72;4929346;29;20051;-84
2021/09/16 06:05:41;;;;;;;4.38;2.10;;;;;;;16.95;100.00;98809.97;4919418;29;20453;-84
2021/09/16 06:08:10;;;;;;;6.65;1.60;;;;;;;16.93;100.00;98815.69;4924621;29;20063;-84
2021/09/16 06:10:40;;;;;;;7.53;2.08;;;;;;;16.94;100.00;98795.41;4919958;29;20456;-85
2021/09/16 06:13:07;;;;;;;5.40;2.10;;;;;;;16.88;100.00;98803.78;4916424;29;20056;-86
2021/09/16 06:15:34;;;;;;;2.25;1.85;;;;;;;16.87;100.00;98800.16;4924045;29;20055;-86
2021/09/16 06:18:10;;;;;;;3.97;2.25;;;;;;;17.04;100.00;98822.31;4920365;29;20493;-85
2021/09/16 06:20:36;;;;;;;4.00;2.38;;;;;;;17.02;100.00;98826.38;4919250;29;20056;-84
2021/09/16 06:23:03;;;;;;;2.85;2.35;;;;;;;17.09;100.00;98827.94;4935132;29;20059;-84
2021/09/16 06:25:30;;;;;;;3.80;1.83;;;;;;;17.08;100.00;98820.75;4935081;29;20056;-84
2021/09/16 06:27:58;;;;;;;2.78;2.13;;;;;;;17.06;100.00;98813.84;4925890;29;20047;-84
2021/09/16 06:30:25;;;;;;;3.05;2.50;;;;;;;17.08;100.00;98826.25;4922181;29;20555;-84
2021/09/16 06:32:53;;;;;;;3.15;1.90;;;;;;;17.14;100.00;98827.22;4920404;29;20056;-83
2021/09/16 06:35:21;;;;;;;3.58;2.10;;;;;;;17.14;100.00;98816.22;4924695;29;20164;-83
2021/09/16 06:37:48;;;;;;;3.90;2.08;;;;;;;17.31;100.00;98833.72;4920716;29;20407;-83
2021/09/16 06:40:16;;;;;;;4.50;2.17;;;;;;;17.18;100.00;98831.19;4919633;29;20100;-83
2021/09/16 06:42:42;;;;;;;4.30;2.40;;;;;;;17.22;100.00;98839.78;4922964;29;20115;-83
2021/09/16 06:45:12;;;;;;;3.63;2.10;;;;;;;17.10;100.00;98829.63;4938310;29;20055;-83
2021/09/16 06:47:39;;;;;;;3.75;2.58;;;;;;;17.08;100.00;98830.91;4938404;29;20056;-83
2021/09/16 06:50:07;;;;;;;3.88;2.00;;;;;;;17.16;100.00;98831.41;4919242;29;20088;-84
2021/09/16 06:52:33;;;;;;;3.42;2.40;;;;;;;17.14;100.00;98833.53;4919675;29;20060;-83
2021/09/16 06:55:00;;;;;;;9.43;2.47;;;;;;;17.16;100.00;98842.41;4919590;29;20055;-84
2021/09/16 06:57:28;;;;;;;6.28;2.42;;;;;;;17.17;100.00;98841.31;4919412;29;20044;-83
2021/09/16 06:59:55;;;;;;;4.18;2.10;;;;;;;17.22;100.00;98856.25;4920395;29;20128;-84
2021/09/16 07:02:23;;;;;;;5.35;2.67;;;;;;;17.12;100.00;98849.44;4938130;29;20114;-83
2021/09/16 07:04:49;;;;;;;7.68;4.60;;;;;;;17.19;100.00;98854.81;4937482;29;20051;-84
2021/09/16 07:07:16;;;;;;;30.05;9.30;;;;;;;17.02;100.00;98853.81;4938318;29;20511;-83
2021/09/16 07:09:43;;;;;;;22.35;11.95;;;;;;;17.09;100.00;98866.38;4937298;29;20048;-84
2021/09/16 07:12:10;;;;;;;23.20;12.73;;;;;;;16.94;100.00;98869.56;4919480;29;20091;-84
2021/09/16 07:14:37;;;;;;;27.08;14.13;;;;;;;17.04;100.00;98873.63;4919068;29;20052;-84
2021/09/16 07:17:04;;;;;;;29.52;14.68;;;;;;;16.96;100.00;98864.66;4934818;29;20051;-84
2021/09/16 07:19:32;;;;;;;28.23;14.38;;;;;;;16.81;100.00;98856.81;4938472;29;20051;-84
2021/09/16 07:21:59;;;;;;;29.00;15.90;;;;;;;17.07;100.00;98870.41;4926049;29;20052;-83
2021/09/16 07:24:26;;;;;;;27.90;14.93;;;;;;;17.01;100.00;98863.94;4918997;29;20076;-84
2021/09/16 07:26:53;;;;;;;36.30;16.33;;;;;;;17.01;100.00;98874.09;4928896;29;20488;-84
2021/09/16 07:29:20;;;;;;;31.67;16.75;;;;;;;17.09;100.00;98877.38;4938217;29;20094;-84
2021/09/16 07:31:48;;;;;;;36.35;17.35;;;;;;;16.94;100.00;98864.06;4937198;29;20063;-84
2021/09/16 07:34:16;;;;;;;31.40;17.48;;;;;;;17.13;100.00;98886.81;4919681;29;20115;-84
2021/09/16 07:36:44;;;;;;;31.52;17.13;;;;;;;17.18;100.00;98883.38;4918385;29;20052;-84
2021/09/16 07:39:11;;;;;;;29.63;15.13;;;;;;;17.07;100.00;98871.28;4919571;29;20084;-83
2021/09/16 07:41:38;;;;;;;28.70;16.10;;;;;;;17.15;100.00;98878.34;4918748;29;20276;-84
2021/09/16 07:44:06;;;;;;;30.67;16.20;;;;;;;17.21;100.00;98885.63;4918912;29;20507;-85
2021/09/16 07:46:32;;;;;;;34.20;16.35;;;;;;;17.25;100.00;98888.75;4918555;29;20431;-84
2021/09/16 07:49:00;;;;;;;28.75;16.88;;;;;;;17.13;100.00;98886.81;4923536;29;20475;-84
2021/09/16 07:51:27;;;;;;;30.63;17.83;;;;;;;17.11;100.00;98888.13;4937649;29;20415;-84
2021/09/16 07:53:55;;;;;;;29.73;16.30;;;;;;;17.16;100.00;98897.34;4937727;29;20120;-84
2021/09/16 07:56:22;;;;;;;31.80;17.05;;;;;;;17.07;100.00;98885.00;4936923;29;20048;-84
2021/09/16 07:58:49;;;;;;;22.33;15.05;;;;;;;17.08;100.00;98918.78;4937713;29;20404;-84
2021/09/16 08:01:16;;;;;;;23.10;13.95;;;;;;;16.97;100.00;98918.50;4936942;29;20051;-84
2021/09/16 08:03:42;;;;;;;16.50;11.50;;;;;;;16.85;100.00;98909.38;4937462;29;20484;-84
2021/09/16 08:06:09;;;;;;;18.83;12.52;;;;;;;16.81;100.00;98930.94;4935463;29;20047;-84
2021/09/16 08:08:36;;;;;;;16.48;10.07;;;;;;;16.83;100.00;98929.88;4937740;29;20055;-84
2021/09/16 08:11:05;;;;;;;16.35;9.23;;;;;;;16.74;100.00;98934.84;4936951;29;20098;-84
2021/09/16 08:13:32;;;;;;;6.90;5.68;;;;;;;16.57;100.00;98938.19;4937328;29;20099;-85
2021/09/16 08:16:01;;;;;;;7.90;5.07;;;;;;;16.57;100.00;98929.97;4937087;29;20063;-85
2021/09/16 08:18:28;;;;;;;5.20;4.13;;;;;;;16.43;100.00;98937.53;4919765;29;20052;-84
2021/09/16 08:20:55;;;;;;;6.03;4.22;;;;;;;16.32;100.00;98929.22;4924299;29;20047;-84
2021/09/16 08:23:23;;;;;;;6.68;3.90;;;;;;;16.28;100.00;98945.31;4936279;29;20052;-83
2021/09/16 08:25:50;;;;;;;8.82;4.30;;;;;;;16.32;100.00;98952.03;4936802;29;20048;-83
2021/09/16 08:28:18;;;;;;;6.60;4.82;;;;;;;16.33;100.00;98934.47;4928972;29;20082;-82
2021/09/16 08:30:45;;;;;;;7.75;6.10;;;;;;;16.49;100.00;98955.00;4918002;29;20056;-83
2021/09/16 08:33:13;;;;;;;9.35;6.30;;;;;;;16.46;100.00;98964.50;4917830;29;20492;-82
2021/09/16 08:35:40;;;;;;;11.35;6.95;;;;;;;16.30;100.00;98953.31;4917030;29;20139;-83
2021/09/16 08:38:07;;;;;;;8.38;6.90;;;;;;;16.23;100.00;98942.41;4918211;29;20099;-83
2021/09/16 08:40:34;;;;;;;11.88;7.82;;;;;;;16.12;100.00;98938.50;4917734;29;20052;-82
2021/09/16 08:43:02;;;;;;;11.10;8.10;;;;;;;16.27;100.00;98952.72;4917842;29;20477;-82
2021/09/16 08:45:31;;;;;;;16.63;8.73;;;;;;;16.40;100.00;98957.19;4917535;29;20056;-83
2021/09/16 08:47:57;;;;;;;10.57;8.52;;;;;;;16.11;100.00;98950.56;4917571;29;20052;-82
2021/09/16 08:50:26;;;;;;;16.08;9.73;;;;;;;16.25;100.00;98963.03;4933600;29;20051;-83
2021/09/16 08:52:53;;;;;;;10.32;8.23;;;;;;;16.20;100.00;98971.13;4936572;29;20172;-84
2021/09/16 08:55:21;;;;;;;13.82;9.52;;;;;;;16.26;100.00;98966.66;4934913;29;20059;-83
2021/09/16 08:57:55;;;;;;;13.90;8.60;;;;;;;15.86;100.00;98947.81;4935805;29;20405;-83
2021/09/16 09:00:23;;;;;;;10.65;8.60;;;;;;;15.88;100.00;98953.91;4935460;29;20452;-83
2021/09/16 09:02:52;;;;;;;16.65;8.95;;;;;;;16.04;100.00;98980.75;4936138;29;20062;-82
2021/09/16 09:05:19;;;;;;;13.07;9.40;;;;;;;16.01;100.00;98970.25;4933541;29;20052;-83
2021/09/16 09:07:49;;;;;;;15.20;8.57;;;;;;;15.96;100.00;98980.19;4936425;29;20051;-83
2021/09/16 09:10:38;;;;;;;14.07;9.65;;;;;;;15.81;100.00;98986.88;4934393;29;20116;-83
2021/09/16 09:13:08;;;;;;;14.05;9.75;;;;;;;15.64;100.00;98967.38;4928786;29;20114;-83
2021/09/16 09:15:38;;;;;;;13.23;9.63;;;;;;;15.80;100.00;98982.44;4935097;29;20530;-83
2021/09/16 09:18:08;;;;;;;22.88;14.25;;;;;;;15.73;100.00;98982.47;4935921;29;20399;-82
2021/09/16 09:20:53;;;;;;;17.98;11.27;;;;;;;15.78;100.00;98991.94;4935758;29;20048;-83
2021/09/16 09:23:28;;;;;;;20.27;10.85;;;;;;;15.80;100.00;98981.63;4935666;29;20075;-83
2021/09/16 09:25:55;;;;;;;14.80;10.07;;;;;;;15.83;100.00;98961.97;4935663;29;20061;-83
2021/09/16 09:28:33;;;;;;;14.38;9.90;;;;;;;15.81;100.00;98972.34;4917919;29;20059;-83
2021/09/16 09:31:16;;;;;;;19.17;11.45;;;;;;;15.85;100.00;98968.94;4916589;29;20485;-83
2021/09/16 09:33:44;;;;;;;20.63;10.68;;;;;;;16.00;100.00;98993.22;4917459;29;20445;-83
2021/09/16 09:36:15;;;;;;;15.50;10.88;;;;;;;15.89;100.00;98983.00;4916305;29;20063;-83
2021/09/16 09:38:54;;;;;;;17.85;11.52;;;;;;;16.10;100.00;98996.31;4925912;29;20110;-83
2021/09/16 09:41:27;;;;;;;17.38;11.63;;;;;;;15.98;100.00;99000.84;4935646;29;20070;-83
2021/09/16 09:44:03;;;;;;;19.08;12.23;;;;;;;16.10;100.00;99010.03;4932196;29;20059;-83
2021/09/16 09:46:37;;;;;;;14.68;10.55;;;;;;;16.16;100.00;99010.19;4916155;29;20503;-82
2021/09/16 09:49:07;;;;;;;16.73;10.65;;;;;;;15.89;100.00;98989.31;4916961;29;20063;-83
2021/09/16 09:51:36;;;;;;;14.75;9.43;;;;;;;15.88;100.00;98995.88;4921932;29;20070;-82
2021/09/16 09:54:29;;;;;;;18.63;9.50;;;;;;;15.87;100.00;99001.59;4934947;29;20047;-82
2021/09/16 09:57:06;;;;;;;12.13;8.80;;;;;;;15.70;100.00;99007.59;4935486;29;20087;-83
2021/09/16 09:59:56;;;;;;;15.20;8.88;;;;;;;15.66;100.00;99011.84;4935415;29;20131;-82
2021/09/16 10:02:24;;;;;;;;;;;;;;;15.58;100.00;99015.69;4916426;29;20048;-82
2021/09/16 10:04:53;;;;;;;13.68;9.50;;;;;;;15.61;100.00;99002.59;4916469;29;20376;-83
2021/09/16 10:07:37;;;;;;;13.70;9.68;;;;;;;15.51;100.00;99005.84;4916215;29;20052;-83
2021/09/16 10:10:13;;;;;;;14.52;9.35;;;;;;;15.37;100.00;98996.84;4916661;29;20055;-83
2021/09/16 10:12:42;;;;;;;16.67;9.73;;;;;;;15.28;100.00;98993.53;4935219;29;20271;-83
2021/09/16 10:15:11;;;;;;;15.85;10.65;;;;;;;15.41;100.00;99017.25;4934663;29;20044;-82
2021/09/16 10:17:39;;;;;;;17.55;11.00;;;;;;;15.34;100.00;99013.72;4916142;29;20107;-82
2021/09/16 10:20:10;;;;;;;20.05;12.52;;;;;;;15.44;100.00;99025.03;4916373;29;20112;-81
2021/09/16 10:22:39;;;;;;;18.23;11.45;;;;;;;15.44;100.00;99016.81;4928774;29;20055;-82
2021/09/16 10:25:07;;;;;;;16.08;11.63;;;;;;;15.50;100.00;99001.41;4934902;29;20484;-82
2021/09/16 10:27:39;;;;;;;19.95;11.75;;;;;;;15.52;100.00;99015.72;4934402;29;20047;-82
2021/09/16 10:30:42;;;;;;;19.63;12.95;;;;;;;15.64;100.00;99022.19;4935252;29;20059;-82
2021/09/16 10:33:12;;;;;;;19.40;11.90;;;;;;;15.72;100.00;99030.13;4924806;29;20052;-82
2021/09/16 10:35:42;;;;;;;21.02;12.38;;;;;;;15.88;100.00;99011.47;4919567;29;20555;-82
2021/09/16 10:38:18;;;;;;;;;;;;;;;15.86;100.00;99025.41;4926914;29;20048;-83
2021/09/16 10:40:45;;;;;;;16.83;10.70;;;;;;;16.02;100.00;99025.94;4915918;29;19923;-82
2021/09/16 10:43:21;;;;;;;20.67;11.57;;;;;;;16.16;100.00;99024.75;4921581;29;20511;-82
2021/09/16 10:45:49;;;;;;;15.07;10.70;;;;;;;16.28;100.00;99014.69;4934700;29;20130;-82
2021/09/16 10:48:27;;;;;;;16.08;10.02;;;;;;;16.19;100.00;98998.78;4934931;29;20127;-82
2021/09/16 10:51:01;;;;;;;17.90;10.63;;;;;;;16.31;100.00;99029.88;4934969;29;20146;-83
2021/09/16 10:53:34;;;;;;;15.77;10.48;;;;;;;16.18;100.00;99021.78;4916612;29;20100;-82
2021/09/16 10:56:01;;;;;;;24.58;12.25;;;;;;;16.15;100.00;99019.47;4915562;29;20080;-82
2021/09/16 10:58:29;;;;;;;21.15;12.07;;;;;;;16.17;100.00;99015.47;4915824;29;20411;-82
2021/09/16 11:00:56;;;;;;;17.08;11.35;;;;;;;16.23;100.00;99021.97;4916030;29;20484;-83
2021/09/16 11:03:23;;;;;;;17.23;11.38;;;;;;;16.28;100.00;99020.19;4915691;29;20044;-83
2021/09/16 11:05:53;;;;;;;18.48;10.88;;;;;;;16.33;100.00;99022.25;4919415;29;20052;-82
2021/09/16 11:08:43;;;;;;;18.45;11.63;;;;;;;16.35;100.00;99011.06;4915627;29;20052;-83
2021/09/16 11:11:09;;;;;;;20.90;11.27;;;;;;;16.43;100.00;99024.50;4933116;29;20056;-83
2021/09/16 11:13:54;;;;;;;15.82;10.60;;;;;;;16.23;100.00;99019.22;4934747;29;20044;-83
2021/09/16 11:16:24;;;;;;;18.08;10.15;;;;;;;16.32;100.00;99030.72;4934333;29;20051;-82
2021/09/16 11:18:52;;;;;;;15.13;9.77;;;;;;;16.35;100.00;99019.28;4934381;29;20076;-83
2021/09/16 11:21:21;;;;;;;14.13;9.43;;;;;;;16.33;100.00;99011.28;4932175;29;20044;-84
2021/09/16 11:23:51;;;;;;;17.50;9.48;;;;;;;16.22;100.00;99007.38;4917993;29;20541;-82
2021/09/16 11:26:20;;;;;;;17.73;9.35;;;;;;;16.50;100.00;99021.66;4919044;29;20051;-82
2021/09/16 11:29:00;;;;;;;17.13;8.93;;;;;;;16.68;100.00;99027.19;4919422;29;20412;-83
2021/09/16 11:31:27;;;;;;;;;;;;;;;16.88;100.00;99020.66;4919418;29;20064;-83
2021/09/16 11:34:15;;;;;;;12.18;7.95;;;;;;;17.04;100.00;99020.03;4931569;29;19926;-83
2021/09/16 11:37:08;;;;;;;13.38;8.73;;;;;;;17.10;100.00;99015.50;4937262;29;20571;-83
2021/09/16 11:39:37;;;;;;;15.27;9.07;;;;;;;17.18;100.00;99023.44;4924348;29;20045;-83
2021/09/16 11:42:17;;;;;;;13.85;8.55;;;;;;;17.16;99.52;99009.09;4918423;29;20088;-82
2021/09/16 11:45:17;;;;;;;12.57;8.43;;;;;;;17.37;100.00;99031.66;4926547;29;20107;-81
2021/09/16 11:47:51;;;;;;;11.65;8.18;;;;;;;17.41;99.00;99032.88;4937855;29;20075;-84
2021/09/16 11:50:28;;;;;;;12.38;8.77;;;;;;;17.54;98.83;99035.44;4931627;29;20056;-82